createdAt,value
2022-11-08T00:09:37.675Z,19.08
2022-11-08T00:14:36.370Z,23.15
2022-11-08T00:19:36.272Z,21.58
2022-11-08T00:24:34.753Z,19.08
2022-11-08T00:29:33.909Z,15.00
2022-11-08T00:34:31.229Z,22.38
2022-11-08T00:39:28.341Z,25.55
2022-11-08T00:44:26.351Z,24.70
2022-11-08T00:49:23.609Z,25.67
2022-11-08T00:54:21.171Z,22.25
2022-11-08T00:59:20.080Z,22.40
2022-11-08T01:04:19.117Z,21.38
2022-11-08T01:09:19.215Z,15.77
2022-11-08T01:14:16.278Z,19.98
2022-11-08T01:19:13.365Z,17.63
2022-11-08T01:24:11.335Z,16.77
2022-11-08T01:29:08.310Z,17.00
2022-11-08T01:34:05.440Z,17.55
2022-11-08T01:39:02.677Z,14.25
2022-11-08T01:44:00.457Z,14.38
2022-11-08T01:49:06.566Z,16.23
2022-11-08T01:54:08.037Z,14.45
2022-11-08T01:59:08.006Z,14.15
2022-11-08T02:04:05.710Z,13.10
2022-11-08T02:09:06.531Z,13.88
2022-11-08T02:14:06.232Z,16.13
2022-11-08T02:19:05.239Z,12.57
2022-11-08T02:24:08.095Z,13.50
2022-11-08T02:29:25.747Z,13.52
2022-11-08T02:34:27.693Z,14.15
2022-11-08T02:39:25.458Z,17.08
2022-11-08T02:44:22.330Z,15.98
2022-11-08T02:49:19.299Z,17.35
2022-11-08T02:54:16.188Z,15.90
2022-11-08T02:59:13.984Z,14.93
2022-11-08T03:04:11.260Z,16.58
2022-11-08T03:09:08.448Z,18.27
2022-11-08T03:14:05.394Z,15.65
2022-11-08T03:19:03.194Z,18.42
2022-11-08T03:24:00.156Z,20.90
2022-11-08T03:28:57.260Z,17.20
2022-11-08T03:33:54.174Z,18.95
2022-11-08T03:38:51.782Z,20.50
2022-11-08T03:43:48.748Z,22.20
2022-11-08T03:48:45.852Z,21.88
2022-11-08T03:53:43.378Z,17.73
2022-11-08T03:58:41.118Z,17.63
2022-11-08T04:03:37.981Z,17.10
2022-11-08T04:08:34.948Z,19.90
2022-11-08T04:13:49.810Z,22.05
2022-11-08T04:19:05.321Z,21.60
2022-11-08T04:24:02.412Z,17.77
2022-11-08T04:29:01.705Z,21.25
2022-11-08T04:33:59.497Z,20.65
2022-11-08T04:38:56.429Z,20.90
2022-11-08T04:43:56.314Z,18.83
2022-11-08T04:48:55.497Z,26.88
2022-11-08T04:53:54.883Z,29.33
2022-11-08T04:59:08.267Z,16.25
2022-11-08T05:04:08.428Z,18.55
2022-11-08T05:09:06.352Z,26.50
2022-11-08T05:14:03.928Z,17.80
2022-11-08T05:19:11.952Z,19.88
2022-11-08T05:24:13.900Z,22.40
2022-11-08T05:29:15.695Z,21.95
2022-11-08T05:34:15.760Z,22.25
2022-11-08T05:39:13.412Z,28.13
2022-11-08T05:44:10.493Z,27.17
2022-11-08T05:49:07.639Z,28.60
2022-11-08T05:54:05.033Z,27.63
2022-11-08T05:59:05.786Z,21.98
2022-11-08T06:04:02.853Z,39.38
2022-11-08T06:09:00.042Z,101.55
2022-11-08T06:13:57.986Z,33.70
2022-11-08T06:18:59.613Z,28.25
2022-11-08T06:23:56.661Z,25.15
2022-11-08T06:28:53.739Z,33.72
2022-11-08T06:33:50.902Z,26.98
2022-11-08T06:38:53.606Z,22.02
2022-11-08T06:43:50.771Z,17.88
2022-11-08T06:48:47.927Z,18.05
2022-11-08T06:53:45.656Z,21.95
2022-11-08T06:58:43.831Z,15.18
2022-11-08T07:03:40.957Z,19.92
2022-11-08T07:08:38.242Z,19.52
2022-11-08T07:13:35.265Z,16.30
2022-11-08T07:18:34.259Z,16.75
2022-11-08T07:23:32.037Z,24.02
2022-11-08T07:28:29.263Z,29.30
2022-11-08T07:33:26.961Z,18.20
2022-11-08T07:38:25.745Z,15.75
2022-11-08T07:43:22.743Z,21.25
2022-11-08T07:48:21.017Z,18.33
2022-11-08T07:53:18.913Z,17.17
2022-11-08T07:58:17.162Z,20.10
2022-11-08T08:03:15.051Z,20.83
2022-11-08T08:08:13.597Z,15.43
2022-11-08T08:13:10.765Z,17.00
2022-11-08T08:18:09.378Z,16.30
2022-11-08T08:23:06.877Z,19.58
2022-11-08T08:28:05.368Z,15.55
2022-11-08T08:38:22.783Z,13.48
2022-11-08T08:43:20.838Z,16.27
2022-11-08T08:48:18.113Z,13.27
2022-11-08T08:53:15.501Z,17.63
2022-11-08T08:58:16.801Z,13.35
2022-11-08T09:03:14.772Z,13.48
2022-11-08T09:08:14.763Z,18.75
2022-11-08T09:13:17.494Z,16.48
2022-11-08T09:18:18.332Z,15.10
2022-11-08T09:23:17.282Z,11.60
2022-11-08T09:28:15.983Z,11.85
2022-11-08T09:33:13.273Z,14.52
2022-11-08T09:38:11.127Z,16.63
2022-11-08T09:43:28.997Z,14.90
2022-11-08T09:48:32.509Z,12.90
2022-11-08T09:53:39.409Z,14.18
2022-11-08T09:58:41.198Z,13.43
2022-11-08T10:03:38.564Z,17.50
2022-11-08T10:08:43.651Z,15.15
2022-11-08T10:14:00.487Z,12.75
2022-11-08T10:19:18.653Z,13.10
2022-11-08T10:24:22.456Z,12.65
2022-11-08T10:29:22.750Z,10.07
2022-11-08T10:34:25.837Z,11.70
2022-11-08T10:39:27.416Z,11.82
2022-11-08T10:44:26.629Z,12.07
2022-11-08T10:49:25.886Z,11.93
2022-11-08T10:54:42.609Z,15.00
2022-11-08T10:59:41.217Z,17.08
2022-11-08T11:04:38.367Z,13.73
2022-11-08T11:09:38.344Z,11.32
2022-11-08T11:14:37.095Z,13.38
2022-11-08T11:19:36.480Z,10.75
2022-11-08T11:24:35.564Z,15.52
2022-11-08T11:29:34.903Z,16.35
2022-11-08T11:34:50.521Z,11.73
2022-11-08T11:39:55.346Z,13.05
2022-11-08T11:45:08.396Z,14.07
2022-11-08T11:50:15.800Z,10.10
2022-11-08T11:55:15.315Z,13.38
2022-11-08T12:00:15.261Z,8.57
2022-11-08T12:05:30.334Z,10.00
2022-11-08T12:15:37.567Z,10.90
2022-11-08T12:20:44.229Z,12.02
2022-11-08T12:25:48.296Z,13.75
2022-11-08T12:30:52.861Z,18.60
2022-11-08T12:36:03.503Z,13.57
2022-11-08T12:41:11.730Z,14.20
2022-11-08T12:46:12.604Z,13.63
2022-11-08T12:51:20.301Z,11.75
2022-11-08T12:56:22.670Z,16.00
2022-11-08T13:01:25.610Z,10.45
2022-11-08T13:06:28.809Z,12.88
2022-11-08T13:11:36.929Z,13.48
2022-11-08T13:16:38.614Z,12.40
2022-11-08T13:21:39.891Z,13.00
2022-11-08T13:26:41.443Z,15.23
2022-11-08T13:31:49.433Z,17.88
2022-11-08T13:36:59.377Z,15.60
2022-11-08T13:42:03.080Z,16.40
2022-11-08T13:47:00.145Z,16.17
2022-11-08T13:52:44.082Z,12.98
2022-11-08T13:57:59.091Z,16.80
2022-11-08T14:02:56.108Z,19.35
2022-11-08T14:08:27.724Z,28.88
2022-11-08T14:13:31.364Z,27.83
2022-11-08T14:18:32.496Z,31.75
2022-11-08T14:23:33.050Z,18.17
2022-11-08T14:28:33.246Z,36.63
2022-11-08T14:33:31.789Z,23.13
2022-11-08T14:38:32.779Z,23.92
2022-11-08T14:43:31.163Z,29.27
2022-11-08T14:48:30.247Z,28.48
2022-11-08T14:53:29.197Z,29.60
2022-11-08T14:58:29.707Z,26.52
2022-11-08T15:03:31.041Z,39.13
2022-11-08T15:08:33.915Z,29.17
2022-11-08T15:13:42.805Z,31.73
2022-11-08T15:18:46.034Z,33.25
2022-11-08T15:23:47.841Z,31.42
2022-11-08T15:29:02.970Z,28.33
2022-11-08T15:34:05.304Z,32.17
2022-11-08T15:39:12.248Z,35.80
2022-11-08T15:44:31.245Z,54.38
2022-11-08T15:49:32.945Z,55.22
2022-11-08T15:54:32.754Z,42.25
2022-11-08T15:59:38.187Z,46.70
2022-11-08T16:04:46.723Z,31.15
2022-11-08T16:09:49.953Z,29.48
2022-11-08T16:15:29.417Z,40.17
2022-11-08T16:20:32.350Z,49.90
2022-11-08T16:25:35.668Z,55.90
2022-11-08T16:30:35.223Z,42.13
2022-11-08T16:35:39.905Z,43.35
2022-11-08T16:40:40.967Z,31.00
2022-11-08T16:46:04.186Z,32.88
2022-11-08T16:51:01.068Z,48.25
2022-11-08T16:56:12.069Z,49.08
2022-11-08T17:01:21.660Z,41.97
2022-11-08T17:11:37.751Z,71.63
2022-11-08T17:16:40.405Z,48.78
2022-11-08T17:22:28.395Z,50.15
2022-11-08T17:27:31.651Z,50.35
2022-11-08T17:32:33.067Z,57.15
2022-11-08T17:37:41.406Z,43.13
2022-11-08T17:42:42.134Z,45.60
2022-11-08T17:47:42.658Z,45.13
2022-11-08T17:52:41.322Z,46.05
2022-11-08T17:57:42.271Z,30.95
2022-11-08T18:02:43.133Z,32.67
2022-11-08T18:07:47.260Z,26.38
2022-11-08T18:12:48.938Z,44.13
2022-11-08T18:17:47.339Z,46.55
2022-11-08T18:22:45.854Z,53.60
2022-11-08T18:27:44.319Z,45.45
2022-11-08T18:32:44.449Z,49.53
2022-11-08T18:37:43.460Z,44.30
2022-11-08T18:42:55.912Z,40.80
2022-11-08T18:47:58.607Z,38.22
2022-11-08T18:53:04.124Z,38.63
2022-11-08T18:58:03.204Z,60.13
2022-11-08T19:03:01.588Z,29.58
2022-11-08T19:08:00.696Z,34.13
2022-11-08T19:12:59.413Z,34.30
2022-11-08T19:17:59.398Z,38.03
2022-11-08T19:23:04.691Z,35.15
2022-11-08T19:28:01.999Z,32.05
2022-11-08T19:33:02.564Z,34.28
2022-11-08T19:38:03.973Z,33.75
2022-11-08T19:43:02.068Z,38.00
2022-11-08T19:48:01.638Z,31.45
2022-11-08T19:53:07.615Z,30.70
2022-11-08T19:58:14.204Z,30.60
2022-11-08T20:03:14.200Z,27.30
2022-11-08T20:08:18.004Z,33.33
2022-11-08T20:13:24.265Z,30.50
2022-11-08T20:18:21.775Z,28.98
2022-11-08T20:23:19.948Z,30.02
2022-11-08T20:28:20.632Z,25.67
2022-11-08T20:33:20.984Z,35.40
2022-11-08T20:38:20.417Z,27.17
2022-11-08T20:43:30.137Z,25.75
2022-11-08T20:48:30.428Z,29.08
2022-11-08T20:53:31.595Z,35.97
2022-11-08T20:58:31.935Z,27.67
2022-11-08T21:03:29.720Z,30.38
2022-11-08T21:08:58.597Z,33.38
2022-11-08T21:13:47.099Z,27.58
2022-11-08T21:18:44.255Z,29.70
2022-11-08T21:23:44.876Z,27.60
2022-11-08T21:28:42.410Z,29.38
2022-11-08T21:33:39.811Z,31.48
2022-11-08T21:38:37.563Z,33.15
2022-11-08T21:43:42.327Z,31.13
2022-11-08T21:48:39.616Z,33.50
2022-11-08T21:53:45.170Z,24.80
2022-11-08T21:58:45.902Z,34.30
2022-11-08T22:03:43.087Z,28.27
2022-11-08T22:08:40.983Z,28.48
2022-11-08T22:13:38.006Z,33.40
2022-11-08T22:19:03.604Z,37.97
2022-11-08T22:23:53.234Z,33.70
2022-11-08T22:28:50.650Z,35.67
2022-11-08T22:33:48.703Z,32.83
2022-11-08T22:38:55.378Z,32.40
2022-11-08T22:43:52.981Z,35.53
2022-11-08T22:48:51.120Z,36.65
2022-11-08T22:53:48.161Z,33.83
2022-11-08T22:58:45.613Z,27.30
2022-11-08T23:03:45.842Z,35.72
2022-11-08T23:08:46.325Z,34.28
2022-11-08T23:14:01.529Z,30.35
2022-11-08T23:19:13.625Z,31.58
2022-11-08T23:24:20.514Z,36.25
2022-11-08T23:29:35.921Z,32.65
2022-11-08T23:34:32.984Z,31.13
2022-11-08T23:39:31.069Z,28.00
2022-11-08T23:44:27.740Z,29.17
2022-11-08T23:49:25.098Z,29.83
2022-11-08T23:54:22.626Z,29.67
2022-11-08T23:59:20.342Z,36.20
